Have a Safe July 4th! 

Flight Track Log - Related Links

Times and Time Zones

All times are in EDT time to prevent confusion due to time zone crossing. See the DAL1979 flight status page for this flight to view local times or setup timezone preferences in your user account.

Time Position Orientation Groundspeed Altitude Reporting Facility
EDT Latitude Longitude Course Direction KTS MPH feet Rate Location/Type
Wed 03:55:46 PM 28.4167 -81.3000 270° West 160 184 500  Level Orlando TRACON
Wed 03:57:17 PM 28.3333 -81.3500 208° Southwest 267 307 3,700 2,467 Climbing Orlando TRACON
Wed 03:58:00 PM 28.4167 -81.6992 270° West  Level FlightAware Approximate
Wed 03:59:00 PM 28.4167 -81.8322 270° West  Level FlightAware Approximate
Wed 03:59:03 PM 28.3300 -81.4942 269° West 283 326 8,600  Level Jacksonville Center
Wed 04:00:00 PM 28.4167 -81.9653 270° West  Level FlightAware Approximate
Wed 04:00:04 PM 28.3292 -81.5886 269° West 295 339 11,100  Level Jacksonville Center
Wed 04:01:00 PM 28.4167 -82.0983 270° West  Level FlightAware Approximate
Wed 04:01:03 PM 28.3322 -81.7017 272° West 322 371 12,600  Level Jacksonville Center
Wed 04:02:03 PM 28.3333 -81.8242 271° West 362 417 14,900 2,281 Climbing Jacksonville Center
Wed 04:03:04 PM 28.3342 -81.9517 270° West 391 450 17,200 2,083 Climbing Jacksonville Center
Wed 04:04:04 PM 28.3372 -82.0767 272° West 401 461 19,100 1,966 Climbing Jacksonville Center
Wed 04:05:03 PM 28.3358 -82.2111 269° West 414 476 21,100 2,521 Climbing Jacksonville Center
Wed 04:06:03 PM 28.3367 -82.3408 270° West 421 484 24,100 2,400 Climbing Jacksonville Center
Wed 04:07:03 PM 28.3369 -82.4658 270° West 410 472 25,900 942 Climbing Jacksonville Center
Wed 04:08:04 PM 28.3792 -82.5811 293° West 392 451 26,000 595 Climbing Jacksonville Center
Wed 04:09:04 PM 28.4794 -82.6636 324° Northwest 392 451 27,100 1,462 Climbing Jacksonville Center
Wed 04:10:03 PM 28.5839 -82.7411 327° Northwest 414 476 28,900 1,815 Climbing Jacksonville Center
Wed 04:11:03 PM 28.6842 -82.8169 326° Northwest 434 499 30,700 1,537 Climbing Jacksonville Center
Wed 04:12:04 PM 28.7844 -82.8903 327° Northwest 434 499 32,000 645 Climbing Jacksonville Center
Wed 04:13:04 PM 28.8803 -82.9661 325° Northwest 429 494 32,000  Level Jacksonville Center
Wed 04:14:03 PM 28.9783 -83.0422 326° Northwest 424 488 32,000  Level Jacksonville Center
Wed 04:15:03 PM 29.0783 -83.1206 326° Northwest 424 488 32,000  Level Jacksonville Center
Wed 04:16:04 PM 29.1806 -83.1994 326° Northwest 430 495 32,000  Level Jacksonville Center
Wed 04:17:03 PM 29.2806 -83.2783 325° Northwest 435 501 32,000  Level Jacksonville Center
Wed 04:18:03 PM 29.3806 -83.3550 326° Northwest 435 501 32,000  Level Jacksonville Center
Wed 04:19:04 PM 29.4825 -83.4342 326° Northwest 435 501 32,000  Level Jacksonville Center
Wed 04:20:03 PM 29.5928 -83.5208 326° Northwest 435 501 32,000  Level Jacksonville Center
Wed 04:21:04 PM 29.7008 -83.5883 332° Northwest 440 506 32,000  Level Jacksonville Center
Wed 04:22:03 PM 29.8111 -83.6489 335° Northwest 435 501 32,000  Level Jacksonville Center
Wed 04:23:04 PM 29.9194 -83.7097 334° Northwest 435 501 32,000  Level Jacksonville Center
Wed 04:24:04 PM 30.0297 -83.7706 334° Northwest 435 501 32,000  Level Jacksonville Center
Wed 04:25:03 PM 30.1356 -83.8342 333° Northwest 435 501 32,000  Level Jacksonville Center
Wed 04:26:03 PM 30.2439 -83.8953 334° Northwest 430 495 32,000  Level Jacksonville Center
Wed 04:27:04 PM 30.3519 -83.9567 334° Northwest 430 495 32,000  Level Jacksonville Center
Wed 04:28:04 PM 30.4600 -84.0203 333° Northwest 430 495 32,000  Level Jacksonville Center
Wed 04:29:03 PM 30.5472 -84.0697 334° Northwest 430 495 32,000  Level Jacksonville Center
Wed 04:30:04 PM 30.6633 -84.1389 333° Northwest 430 495 32,000  Level Jacksonville Center
Wed 04:31:04 PM 30.7714 -84.2006 334° Northwest 430 495 32,000  Level Jacksonville Center
Wed 04:32:04 PM 30.8772 -84.2625 333° Northwest 430 495 32,000  Level Jacksonville Center
Wed 04:33:04 PM 30.9831 -84.3272 332° Northwest 430 495 32,000  Level Jacksonville Center
Wed 04:34:04 PM 31.0908 -84.3894 334° Northwest 430 495 32,000  Level Jacksonville Center
Wed 04:35:04 PM 31.1986 -84.4519 334° Northwest 430 495 32,000  Level Jacksonville Center
Wed 04:36:04 PM 31.3042 -84.5169 332° Northwest 430 495 32,000  Level Jacksonville Center
Wed 04:38:19 PM 31.5447 -84.6628 333° Northwest 438 504 32,000  Level Atlanta Center
Wed 04:39:19 PM 31.6508 -84.7244 334° Northwest 433 498 32,000  Level Atlanta Center
Wed 04:40:19 PM 31.7589 -84.7911 332° Northwest 428 493 32,000  Level Atlanta Center
Wed 04:41:19 PM 31.8672 -84.8531 334° Northwest 428 493 32,000  Level Atlanta Center
Wed 04:42:19 PM 31.9711 -84.9178 332° Northwest 428 493 32,000  Level Atlanta Center
Wed 04:43:19 PM 32.0769 -84.9850 332° Northwest 428 493 32,000  Level Atlanta Center
Wed 04:44:19 PM 32.1869 -85.0500 333° Northwest 433 498 32,000  Level Atlanta Center
Wed 04:45:19 PM 32.3056 -85.1153 335° Northwest 421 484 32,000  Level Atlanta Center
Wed 04:46:19 PM 32.4133 -85.1806 333° Northwest 428 493 32,000  Level Atlanta Center
Wed 04:47:19 PM 32.5192 -85.2433 333° Northwest 428 493 32,000  Level Atlanta Center
Wed 04:48:19 PM 32.6250 -85.3089 332° Northwest 428 493 32,000  Level Atlanta Center
Wed 04:49:19 PM 32.7308 -85.3747 332° Northwest 428 493 32,000  Level Atlanta Center
Wed 04:50:19 PM 32.8386 -85.4406 333° Northwest 429 494 32,000  Level Atlanta Center
Wed 04:51:19 PM 32.9464 -85.5067 333° Northwest 429 494 32,000  Level Atlanta Center
Wed 04:52:19 PM 33.0542 -85.5778 331° Northwest 429 494 32,000  Level Atlanta Center
Wed 04:53:19 PM 33.1578 -85.6392 334° Northwest 424 488 32,000  Level Atlanta Center
Wed 04:54:19 PM 33.2633 -85.7008 334° Northwest 425 489 32,000 450 Level Atlanta Center
Wed 04:55:19 PM 33.3708 -85.7775 329° Northwest 430 495 32,900 1,000 Climbing Atlanta Center
Wed 04:56:19 PM 33.4639 -85.8292 335° Northwest 423 487 34,000 1,150 Climbing Atlanta Center
Wed 04:57:19 PM 33.5717 -85.8961 333° Northwest 423 487 35,200 1,000 Climbing Atlanta Center
Wed 04:58:19 PM 33.6811 -85.9686 331° Northwest 418 481 36,000 400 Climbing Atlanta Center
Wed 04:59:19 PM 33.7844 -86.0333 333° Northwest 418 481 36,000  Level Atlanta Center
Wed 05:00:19 PM 33.8897 -86.0983 333° Northwest 413 475 36,000  Level Atlanta Center
Wed 05:01:19 PM 33.9908 -86.1658 331° Northwest 413 475 36,000  Level Atlanta Center
Wed 05:02:19 PM 34.0983 -86.2339 332° Northwest 418 481 36,000  Level Atlanta Center
Wed 05:03:19 PM 34.2036 -86.2994 333° Northwest 418 481 36,000  Level Atlanta Center
Wed 05:04:19 PM 34.3086 -86.3650 333° Northwest 418 481 36,000  Level Atlanta Center
Wed 05:05:19 PM 34.4117 -86.4333 331° Northwest 418 481 36,000  Level Atlanta Center
Wed 05:06:19 PM 34.5147 -86.5017 331° Northwest 418 481 36,000  Level Atlanta Center
Wed 05:07:19 PM 34.6197 -86.5706 332° Northwest 423 487 36,000  Level Atlanta Center
Wed 05:08:19 PM 34.7228 -86.6367 332° Northwest 423 487 36,000  Level Atlanta Center
Wed 05:09:19 PM 34.8278 -86.7033 332° Northwest 423 487 36,000  Level Atlanta Center
Wed 05:10:19 PM 34.9306 -86.7725 331° Northwest 423 487 36,000  Level Atlanta Center
Wed 05:15:23 PM 35.4606 -87.1192 332° Northwest 427 491 36,000  Level Kansas City Center
Wed 05:16:21 PM 35.5550 -87.1875 330° Northwest 425 489 36,000  Level Memphis Center
Wed 05:17:21 PM 35.6592 -87.2603 330° Northwest 425 489 36,000 50 Level Memphis Center
Wed 05:18:21 PM 35.7608 -87.3281 332° Northwest 420 483 36,100 700 Climbing Memphis Center
Wed 05:19:21 PM 35.8519 -87.3886 332° Northwest 420 483 37,400 950 Climbing Memphis Center
Wed 05:20:21 PM 35.9514 -87.4544 332° Northwest 414 476 38,000 300 Climbing Memphis Center
Wed 05:21:21 PM 36.0489 -87.5203 331° Northwest 408 470 38,000  Level Memphis Center
Wed 05:22:21 PM 36.1483 -87.5861 332° Northwest 408 470 38,000  Level Memphis Center
Wed 05:23:21 PM 36.2583 -87.6597 332° Northwest 408 470 38,000  Level Memphis Center
Wed 05:24:21 PM 36.3578 -87.7286 331° Northwest 408 470 38,000  Level Memphis Center
Wed 05:25:21 PM 36.4594 -87.7947 332° Northwest 408 470 38,000 450 Level Memphis Center
Wed 05:26:21 PM 36.5586 -87.8639 331° Northwest 408 470 38,900 950 Climbing Memphis Center
Wed 05:27:21 PM 36.6539 -87.9308 331° Northwest 408 470 39,900 550 Climbing Memphis Center
Wed 05:28:21 PM 36.7489 -87.9953 331° Northwest 403 464 40,000 50 Climbing Memphis Center
Wed 05:29:21 PM 36.8461 -88.0625 331° Northwest 403 464 40,000  Level Memphis Center
Wed 05:30:21 PM 36.9347 -88.1222 332° Northwest 403 464 40,000  Level Memphis Center
Wed 05:31:21 PM 37.0317 -88.1897 331° Northwest 403 464 40,000  Level Memphis Center
Wed 05:32:21 PM 37.1328 -88.2572 332° Northwest 403 464 40,000  Level Memphis Center
Wed 05:34:00 PM 37.3014 -88.3761 331° Northwest 412 474 40,000  Level Kansas City Center
Wed 05:35:02 PM 37.4011 -88.4467 331° Northwest 413 475 40,000  Level Kansas City Center
Wed 05:36:04 PM 37.4994 -88.5164 331° Northwest 410 472 40,000  Level Kansas City Center
Wed 05:37:06 PM 37.5903 -88.5803 331° Northwest 405 466 40,000  Level Kansas City Center
Wed 05:38:08 PM 37.7075 -88.6631 331° Northwest 401 461 40,000  Level Kansas City Center
Wed 05:39:10 PM 37.8044 -88.7317 331° Northwest 398 458 40,000  Level Kansas City Center
Wed 05:40:12 PM 37.8983 -88.7975 331° Northwest 401 461 40,000  Level Kansas City Center
Wed 05:41:14 PM 37.9942 -88.8678 330° Northwest 400 460 40,000  Level Kansas City Center
Wed 05:42:16 PM 38.0919 -88.9372 331° Northwest 402 463 40,000  Level Kansas City Center
Wed 05:43:18 PM 38.2108 -89.0222 331° Northwest 405 466 40,000  Level Kansas City Center
Wed 05:44:20 PM 38.3086 -89.0939 330° Northwest 406 467 40,000  Level Kansas City Center
Wed 05:45:22 PM 38.4153 -89.1722 330° Northwest 410 472 40,000  Level Kansas City Center
Wed 05:46:24 PM 38.5144 -89.2433 331° Northwest 410 472 40,000  Level Kansas City Center
Wed 05:47:26 PM 38.6225 -89.3217 330° Northwest 415 478 40,000  Level Kansas City Center
Wed 05:48:28 PM 38.7239 -89.3950 331° Northwest 419 482 40,000  Level Kansas City Center
Wed 05:49:30 PM 38.8325 -89.4753 330° Northwest 421 484 40,000  Level Kansas City Center
Wed 05:50:32 PM 38.9342 -89.5503 330° Northwest 422 486 40,000  Level Kansas City Center
Wed 05:51:34 PM 39.0442 -89.6325 330° Northwest 425 489 40,000  Level Kansas City Center
Wed 05:52:36 PM 39.1464 -89.7081 330° Northwest 425 489 40,000  Level Kansas City Center
Wed 05:53:38 PM 39.2331 -89.7714 330° Northwest 420 483 40,000  Level Kansas City Center
Wed 05:54:40 PM 39.3564 -89.8633 330° Northwest 427 491 40,000  Level Kansas City Center
Wed 05:55:42 PM 39.4592 -89.9400 330° Northwest 429 494 40,000  Level Kansas City Center
Wed 05:56:45 PM 39.5619 -90.0175 330° Northwest 429 494 40,000  Level Kansas City Center
Wed 05:57:47 PM 39.6656 -90.0956 330° Northwest 431 496 40,000  Level Kansas City Center
Wed 05:58:49 PM 39.7822 -90.1867 329° Northwest 430 495 40,000  Level Kansas City Center
Wed 05:59:51 PM 39.8867 -90.2661 330° Northwest 432 497 40,000  Level Kansas City Center
Wed 06:00:17 PM 39.9286 -90.2975 330° Northwest 433 498 40,000  Level Chicago Center
Wed 06:01:19 PM 40.0322 -90.3775 329° Northwest 432 497 40,000  Level Chicago Center
Wed 06:01:55 PM 40.0958 -90.4278 329° Northwest 435 501 40,000  Level Kansas City Center
Wed 06:02:21 PM 40.1367 -90.4575 331° Northwest 433 498 40,000  Level Chicago Center
Wed 06:03:23 PM 40.2417 -90.5397 329° Northwest 437 503 40,000  Level Chicago Center
Wed 06:04:25 PM 40.3675 -90.6367 330° Northwest 436 502 40,000  Level Chicago Center
Wed 06:05:27 PM 40.4728 -90.7169 330° Northwest 434 499 40,000  Level Chicago Center
Wed 06:06:29 PM 40.5775 -90.7997 329° Northwest 437 503 40,000 -48 Level Chicago Center
Wed 06:07:32 PM 40.6839 -90.8822 330° Northwest 440 506 39,900  Descending Chicago Center
Wed 06:08:34 PM 40.7900 -90.9647 330° Northwest 441 507 40,000 48 Climbing Chicago Center
Wed 06:09:36 PM 40.8942 -91.0481 329° Northwest 438 504 40,000  Level Chicago Center
Wed 06:10:38 PM 40.9997 -91.1303 330° Northwest 439 505 40,000  Level Chicago Center
Wed 06:11:40 PM 41.1219 -91.2278 329° Northwest 429 494 40,000  Level Chicago Center
Wed 06:12:42 PM 41.2244 -91.3086 329° Northwest 427 491 40,000  Level Chicago Center
Wed 06:13:44 PM 41.3217 -91.3875 329° Northwest 424 488 40,000  Level Chicago Center
Wed 06:14:46 PM 41.4211 -91.4667 329° Northwest 421 484 40,000  Level Chicago Center
Wed 06:15:49 PM 41.5197 -91.5453 329° Northwest 416 479 40,000  Level Chicago Center
Wed 06:16:50 PM 41.6372 -91.6411 329° Northwest 416 479 40,000  Level Chicago Center
Wed 06:17:52 PM 41.7356 -91.7189 329° Northwest 413 475 40,000  Level Chicago Center
Wed 06:18:55 PM 41.8344 -91.8011 328° Northwest 419 482 40,000  Level Chicago Center
Wed 06:19:57 PM 41.9344 -91.8839 328° Northwest 423 487 40,000  Level Chicago Center
Wed 06:20:59 PM 42.0353 -91.9647 329° Northwest 425 489 40,000 -339 Level Chicago Center
Wed 06:22:01 PM 42.1581 -92.0683 328° Northwest 432 497 39,300 -968 Descending Chicago Center
Wed 06:23:03 PM 42.2586 -92.1511 329° Northwest 427 491 38,000 -1,189 Descending Chicago Center
Wed 06:23:47 PM 42.3411 -92.2197 328° Northwest 430 495 37,200 -1,019 Descending Minneapolis Center
Wed 06:24:49 PM 42.4444 -92.3069 328° Northwest 435 501 36,200 -912 Descending Minneapolis Center
Wed 06:25:52 PM 42.5483 -92.3939 328° Northwest 438 504 35,300 -768 Descending Minneapolis Center
Wed 06:26:54 PM 42.6481 -92.4850 326° Northwest 436 502 34,600 -629 Descending Minneapolis Center
Wed 06:27:56 PM 42.7472 -92.5739 327° Northwest 430 495 34,000 -290 Descending Minneapolis Center
Wed 06:28:58 PM 42.8464 -92.6661 326° Northwest 432 497 34,000  Level Minneapolis Center
Wed 06:30:00 PM 42.9703 -92.7656 330° Northwest 436 502 34,000 -387 Level Minneapolis Center
Wed 06:31:02 PM 43.0864 -92.8206 341° North 440 506 33,200 -968 Descending Minneapolis Center
Wed 06:32:04 PM 43.2033 -92.8767 341° North 446 513 32,000 -1,210 Descending Minneapolis Center
Wed 06:33:06 PM 43.3181 -92.9311 341° North 441 507 30,700 -2,468 Descending Minneapolis Center
Wed 06:34:08 PM 43.4328 -92.9875 340° North 441 507 26,900 -3,221 Descending Minneapolis Center
Wed 06:35:22 PM 43.5767 -93.0372 346° North 447 514 23,400 -2,146 Descending Minneapolis Center
Wed 06:36:25 PM 43.7164 -93.0728 350° North 433 498 22,000 -2,640 Descending Minneapolis Center
Wed 06:37:27 PM 43.8422 -93.1069 349° North 414 476 17,900 -4,065 Descending Minneapolis Center
Wed 06:38:29 PM 43.9472 -93.1386 348° North 392 451 13,600 -3,387 Descending Minneapolis Center
Wed 06:39:31 PM 44.0461 -93.1681 348° North 369 425 10,900 -1,742 Descending Minneapolis Center
Wed 06:40:33 PM 44.1267 -93.1914 348° North 292 336 10,000 -435 Descending Minneapolis Center
Wed 06:41:35 PM 44.1994 -93.2133 348° North 269 310 10,000  Level Minneapolis Center
Wed 06:42:37 PM 44.2758 -93.2186 357° North 278 320 10,000  Level Minneapolis Center
Wed 06:43:39 PM 44.3525 -93.2100 North 277 319 10,000 -97 Level Minneapolis Center
Wed 06:44:41 PM 44.4381 -93.1603 23° Northeast 282 325 9,800 -532 Descending Minneapolis Center
Wed 06:45:43 PM 44.5017 -93.1428 11° North 237 273 8,900 -912 Descending Minneapolis Center
Wed 06:46:46 PM 44.5564 -93.1564 350° North 199 229 7,900 -1,056 Descending Minneapolis Center
Wed 06:47:48 PM 44.5989 -93.1681 349° North 160 184 6,700 -1,452 Descending Minneapolis Center
Wed 06:48:50 PM 44.6539 -93.1822 350° North 167 192 4,900 -1,306 Descending Minneapolis Center
Wed 06:49:52 PM 44.7028 -93.1944 350° North 178 205 4,000 -871 Descending Minneapolis Center

Login

Don't have an account? Register now (free) for customized features, flight alerts, and more!